createdAt,value
2017-09-14T00:00:54.385Z,0
2017-09-14T00:01:54.236Z,0
2017-09-14T00:02:54.424Z,0
2017-09-14T00:04:00.385Z,0
2017-09-14T00:04:54.472Z,0
2017-09-14T00:05:54.469Z,0
2017-09-14T00:06:54.452Z,0
2017-09-14T00:07:54.247Z,0
2017-09-14T00:08:53.514Z,0
2017-09-14T00:09:54.510Z,0
2017-09-14T00:10:54.294Z,0
2017-09-14T00:11:54.870Z,0
2017-09-14T00:12:54.570Z,0
2017-09-14T00:13:53.942Z,0
2017-09-14T00:14:54.939Z,0
2017-09-14T00:15:54.399Z,0
2017-09-14T00:16:54.410Z,0
2017-09-14T00:17:54.674Z,0
2017-09-14T00:18:54.691Z,0
2017-09-14T00:19:55.036Z,0
2017-09-14T00:20:54.102Z,0
2017-09-14T00:21:54.433Z,0
2017-09-14T00:22:54.450Z,0
2017-09-14T00:23:54.477Z,0
2017-09-14T00:24:54.487Z,0
2017-09-14T00:25:54.842Z,0
2017-09-14T00:26:54.855Z,0
2017-09-14T00:27:54.871Z,0
2017-09-14T00:28:54.910Z,0
2017-09-14T00:29:54.916Z,0
2017-09-14T00:30:54.290Z,0
2017-09-14T00:31:54.956Z,0
2017-09-14T00:32:54.358Z,0
2017-09-14T00:33:54.378Z,0
2017-09-14T00:34:55.018Z,0
2017-09-14T00:35:55.040Z,0
2017-09-14T00:36:54.414Z,0
2017-09-14T00:37:54.758Z,0
2017-09-14T00:38:54.771Z,0
2017-09-14T00:39:55.124Z,0
2017-09-14T00:40:55.469Z,0
2017-09-14T00:41:54.514Z,0
2017-09-14T00:42:54.532Z,0
2017-09-14T00:43:55.529Z,0
2017-09-14T00:44:55.548Z,0
2017-09-14T00:45:55.570Z,0
2017-09-14T00:46:54.614Z,0
2017-09-14T00:47:55.609Z,0
2017-09-14T00:48:55.633Z,0
2017-09-14T00:49:54.996Z,0
2017-09-14T00:50:54.692Z,0
2017-09-14T00:51:55.125Z,0
2017-09-14T00:52:55.395Z,0
2017-09-14T00:53:55.080Z,0
2017-09-14T00:54:55.427Z,0
2017-09-14T00:55:55.121Z,0
2017-09-14T00:56:55.150Z,0
2017-09-14T00:57:55.487Z,0
2017-09-14T00:58:55.186Z,0
2017-09-14T00:59:55.528Z,0
2017-09-14T01:00:54.903Z,0
2017-09-14T01:01:55.564Z,0
2017-09-14T01:02:55.591Z,0
2017-09-14T01:03:55.861Z,0
2017-09-14T01:04:55.630Z,0
2017-09-14T01:05:56.088Z,0
2017-09-14T01:06:55.694Z,0
2017-09-14T01:07:55.689Z,0
2017-09-14T01:08:55.063Z,0
2017-09-14T01:09:55.729Z,0
2017-09-14T01:10:55.425Z,0
2017-09-14T01:11:55.259Z,0
2017-09-14T01:12:55.804Z,0
2017-09-14T01:13:54.840Z,0
2017-09-14T01:14:55.504Z,0
2017-09-14T01:15:55.851Z,0
2017-09-14T01:16:55.544Z,0
2017-09-14T01:17:55.893Z,0
2017-09-14T01:18:55.269Z,0
2017-09-14T01:19:55.929Z,0
2017-09-14T01:20:56.162Z,0
2017-09-14T01:21:55.387Z,0
2017-09-14T01:22:55.988Z,0
2017-09-14T01:23:55.362Z,0
2017-09-14T01:24:55.384Z,0
2017-09-14T01:25:56.276Z,0
2017-09-14T01:26:56.130Z,0
2017-09-14T01:27:56.139Z,0
2017-09-14T01:28:56.159Z,0
2017-09-14T01:29:56.220Z,0
2017-09-14T01:30:55.833Z,0
2017-09-14T01:31:56.608Z,0
2017-09-14T01:32:55.872Z,0
2017-09-14T01:33:56.283Z,0
2017-09-14T01:34:56.370Z,0
2017-09-14T01:35:56.047Z,0
2017-09-14T01:36:56.694Z,0
2017-09-14T01:37:56.441Z,0
2017-09-14T01:38:55.336Z,0
2017-09-14T01:39:56.547Z,0
2017-09-14T01:40:56.096Z,0
2017-09-14T01:41:56.549Z,0
2017-09-14T01:42:56.379Z,0
2017-09-14T01:43:56.558Z,0
2017-09-14T01:44:56.554Z,0
2017-09-14T01:45:56.239Z,0
2017-09-14T01:46:56.691Z,0
2017-09-14T01:47:55.847Z,0
2017-09-14T01:48:55.544Z,0
2017-09-14T01:49:56.383Z,0
2017-09-14T01:50:56.697Z,0
2017-09-14T01:51:55.928Z,0
2017-09-14T01:52:56.038Z,0
2017-09-14T01:53:56.574Z,0
2017-09-14T01:54:56.077Z,0
2017-09-14T01:55:56.557Z,0
2017-09-14T01:56:56.749Z,0
2017-09-14T01:57:56.396Z,0
2017-09-14T01:58:56.559Z,0
2017-09-14T01:59:56.558Z,0
2017-09-14T02:00:56.568Z,0
2017-09-14T02:01:56.777Z,0
2017-09-14T02:02:56.567Z,0
2017-09-14T02:03:56.814Z,0
2017-09-14T02:04:56.859Z,0
2017-09-14T02:05:57.060Z,0
2017-09-14T02:06:56.708Z,0
2017-09-14T02:07:56.390Z,0
2017-09-14T02:08:56.389Z,0
2017-09-14T02:09:56.059Z,0
2017-09-14T02:10:56.389Z,0
2017-09-14T02:11:56.974Z,0
2017-09-14T02:12:57.325Z,0
2017-09-14T02:13:57.021Z,0
2017-09-14T02:14:56.725Z,0
2017-09-14T02:15:57.260Z,0
2017-09-14T02:16:57.396Z,0
2017-09-14T02:17:56.762Z,0
2017-09-14T02:18:56.461Z,0
2017-09-14T02:19:56.605Z,0
2017-09-14T02:20:57.159Z,0
2017-09-14T02:21:56.848Z,0
2017-09-14T02:22:56.871Z,0
2017-09-14T02:23:57.224Z,0
2017-09-14T02:24:56.945Z,0
2017-09-14T02:25:56.603Z,0
2017-09-14T02:26:57.271Z,0
2017-09-14T02:27:56.645Z,0
2017-09-14T02:28:57.312Z,0
2017-09-14T02:29:57.327Z,0
2017-09-14T02:30:57.350Z,0
2017-09-14T02:31:57.702Z,0
2017-09-14T02:32:57.716Z,0
2017-09-14T02:33:57.744Z,0
2017-09-14T02:34:56.458Z,0
2017-09-14T02:35:57.143Z,0
2017-09-14T02:36:57.474Z,0
2017-09-14T02:37:57.527Z,0
2017-09-14T02:38:57.830Z,0
2017-09-14T02:39:57.539Z,0
2017-09-14T02:40:57.872Z,0
2017-09-14T02:41:57.924Z,0
2017-09-14T02:42:57.913Z,0
2017-09-14T02:43:56.968Z,0
2017-09-14T02:44:57.304Z,0
2017-09-14T02:45:57.655Z,0
2017-09-14T02:46:57.342Z,0
2017-09-14T02:47:57.729Z,0
2017-09-14T02:48:57.706Z,0
2017-09-14T02:49:57.405Z,0
2017-09-14T02:50:58.085Z,0
2017-09-14T02:51:58.090Z,0
2017-09-14T02:52:57.472Z,0
2017-09-14T02:53:57.812Z,0
2017-09-14T02:54:57.823Z,0
2017-09-14T02:55:57.524Z,0
2017-09-14T02:56:57.539Z,0
2017-09-14T02:57:57.901Z,0
2017-09-14T02:58:57.601Z,0
2017-09-14T02:59:57.927Z,0
2017-09-14T03:00:57.947Z,0
2017-09-14T03:01:57.641Z,0
2017-09-14T03:02:57.647Z,0
2017-09-14T03:03:57.670Z,0
2017-09-14T03:04:58.060Z,0
2017-09-14T03:05:58.467Z,0
2017-09-14T03:06:57.403Z,0
2017-09-14T03:07:58.069Z,0
2017-09-14T03:08:57.442Z,0
2017-09-14T03:09:57.607Z,0
2017-09-14T03:10:58.498Z,0
2017-09-14T03:11:57.840Z,0
2017-09-14T03:12:57.523Z,0
2017-09-14T03:13:58.186Z,0
2017-09-14T03:14:58.306Z,0
2017-09-14T03:15:58.555Z,0
2017-09-14T03:16:57.854Z,0
2017-09-14T03:17:59.015Z,0
2017-09-14T03:18:58.378Z,0
2017-09-14T03:19:58.740Z,0
2017-09-14T03:20:58.122Z,0
2017-09-14T03:21:57.695Z,0
2017-09-14T03:22:58.464Z,0
2017-09-14T03:23:58.475Z,0
2017-09-14T03:24:58.605Z,0
2017-09-14T03:25:58.288Z,0
2017-09-14T03:26:58.118Z,0
2017-09-14T03:27:58.575Z,0
2017-09-14T03:28:58.162Z,0
2017-09-14T03:29:58.588Z,0
2017-09-14T03:30:58.630Z,0
2017-09-14T03:31:58.219Z,0
2017-09-14T03:32:58.031Z,0
2017-09-14T03:33:58.674Z,0
2017-09-14T03:34:57.902Z,0
2017-09-14T03:35:58.709Z,0
2017-09-14T03:36:58.728Z,0
2017-09-14T03:37:59.050Z,0
2017-09-14T03:38:58.554Z,0
2017-09-14T03:39:58.575Z,0
2017-09-14T03:40:58.772Z,0
2017-09-14T03:41:58.541Z,0
2017-09-14T03:42:57.789Z,0
2017-09-14T03:43:59.195Z,0
2017-09-14T03:44:58.896Z,0
2017-09-14T03:45:59.139Z,0
2017-09-14T03:46:58.841Z,0
2017-09-14T03:47:58.878Z,0
2017-09-14T03:48:59.030Z,0
2017-09-14T03:49:59.221Z,0
2017-09-14T03:50:58.401Z,0
2017-09-14T03:51:59.258Z,0
2017-09-14T03:52:59.040Z,0
2017-09-14T03:53:58.649Z,0
2017-09-14T03:54:58.988Z,0
2017-09-14T03:55:58.441Z,0
2017-09-14T03:56:58.466Z,0
2017-09-14T03:57:59.056Z,0
2017-09-14T03:58:58.752Z,0
2017-09-14T03:59:58.657Z,0
2017-09-14T04:00:58.801Z,0
2017-09-14T04:01:59.129Z,0
2017-09-14T04:02:59.156Z,0
2017-09-14T04:03:58.529Z,0
2017-09-14T04:04:59.186Z,0
2017-09-14T04:05:58.887Z,0
2017-09-14T04:06:58.906Z,0
2017-09-14T04:07:58.931Z,0
2017-09-14T04:08:58.947Z,0
2017-09-14T04:09:59.015Z,0
2017-09-14T04:10:59.647Z,0
2017-09-14T04:11:58.688Z,0
2017-09-14T04:12:58.380Z,0
2017-09-14T04:13:59.041Z,0
2017-09-14T04:14:59.386Z,0
2017-09-14T04:15:59.076Z,0
2017-09-14T04:16:59.428Z,0
2017-09-14T04:17:59.771Z,0
2017-09-14T04:18:59.785Z,0
2017-09-14T04:19:59.158Z,0
2017-09-14T04:20:58.861Z,0
2017-09-14T04:21:59.605Z,0
2017-09-14T04:22:59.232Z,0
2017-09-14T04:23:59.245Z,0
2017-09-14T04:24:59.262Z,0
2017-09-14T04:25:59.281Z,0
2017-09-14T04:26:59.948Z,0
2017-09-14T04:27:58.676Z,0
2017-09-14T04:28:59.339Z,0
2017-09-14T04:29:58.708Z,0
2017-09-14T04:30:59.703Z,0
2017-09-14T04:31:59.082Z,0
2017-09-14T04:33:00.067Z,0
2017-09-14T04:33:59.430Z,0
2017-09-14T04:34:59.778Z,0
2017-09-14T04:35:59.161Z,0
2017-09-14T04:36:59.817Z,0
2017-09-14T04:37:59.514Z,0
2017-09-14T04:38:59.856Z,0
2017-09-14T04:39:59.881Z,0
2017-09-14T04:40:59.247Z,0
2017-09-14T04:42:00.230Z,0
2017-09-14T04:42:59.931Z,0
2017-09-14T04:43:59.986Z,0
2017-09-14T04:44:59.651Z,0
2017-09-14T04:45:59.664Z,0
2017-09-14T04:47:00.011Z,0
2017-09-14T04:47:59.384Z,0
2017-09-14T04:49:00.800Z,0
2017-09-14T04:50:00.073Z,0
2017-09-14T04:50:59.124Z,0
2017-09-14T04:51:59.777Z,0
2017-09-14T04:53:00.457Z,0
2017-09-14T04:54:00.470Z,0
2017-09-14T04:54:59.525Z,0
2017-09-14T04:55:59.866Z,0
2017-09-14T04:56:59.886Z,0
2017-09-14T04:58:00.220Z,0
2017-09-14T04:59:00.574Z,0
2017-09-14T05:00:00.269Z,0
2017-09-14T05:00:59.637Z,0
2017-09-14T05:01:59.978Z,0
2017-09-14T05:03:00.651Z,0
2017-09-14T05:04:00.352Z,0
2017-09-14T05:05:00.239Z,0
2017-09-14T05:06:00.615Z,0
2017-09-14T05:06:59.756Z,0
2017-09-14T05:08:00.425Z,0
2017-09-14T05:08:59.799Z,0
2017-09-14T05:10:00.498Z,0
2017-09-14T05:11:00.159Z,0
2017-09-14T05:12:00.578Z,0
2017-09-14T05:12:59.868Z,0
2017-09-14T05:14:00.547Z,0
2017-09-14T05:14:59.911Z,0
2017-09-14T05:16:00.704Z,0
2017-09-14T05:17:00.283Z,0
2017-09-14T05:18:00.058Z,0
2017-09-14T05:19:00.857Z,0
2017-09-14T05:20:00.529Z,0
2017-09-14T05:21:00.024Z,0
2017-09-14T05:22:01.181Z,0
2017-09-14T05:23:00.536Z,0
2017-09-14T05:24:00.233Z,0
2017-09-14T05:25:00.538Z,0
2017-09-14T05:26:00.861Z,0
2017-09-14T05:27:00.349Z,0
2017-09-14T05:28:00.381Z,0
2017-09-14T05:29:00.698Z,0
2017-09-14T05:30:00.587Z,0
2017-09-14T05:31:00.540Z,0
2017-09-14T05:32:01.344Z,0
2017-09-14T05:33:01.024Z,0
2017-09-14T05:34:00.711Z,0
2017-09-14T05:35:01.020Z,0
2017-09-14T05:36:00.969Z,0
2017-09-14T05:37:00.660Z,0
2017-09-14T05:38:01.405Z,0
2017-09-14T05:39:01.035Z,0
2017-09-14T05:40:00.716Z,0
2017-09-14T05:41:00.737Z,5
2017-09-14T05:42:01.403Z,0
2017-09-14T05:43:00.863Z,0
2017-09-14T05:44:00.480Z,0
2017-09-14T05:45:01.135Z,0
2017-09-14T05:46:01.302Z,0
2017-09-14T05:47:00.857Z,0
2017-09-14T05:48:01.196Z,0
2017-09-14T05:49:00.576Z,0
2017-09-14T05:50:00.909Z,0
2017-09-14T05:51:01.256Z,0
2017-09-14T05:52:01.277Z,0
2017-09-14T05:53:01.615Z,0
2017-09-14T05:54:01.315Z,0
2017-09-14T05:55:01.461Z,0
2017-09-14T05:56:01.026Z,0
2017-09-14T05:57:01.378Z,0
2017-09-14T05:58:01.073Z,0
2017-09-14T05:59:01.163Z,0
2017-09-14T06:00:01.104Z,0
2017-09-14T06:01:01.130Z,0
2017-09-14T06:02:01.151Z,0
2017-09-14T06:03:01.808Z,5
2017-09-14T06:04:01.187Z,5
2017-09-14T06:05:01.526Z,5
2017-09-14T06:06:01.001Z,0
2017-09-14T06:07:01.440Z,0
2017-09-14T06:08:01.379Z,0
2017-09-14T06:09:01.704Z,5
2017-09-14T06:10:01.379Z,0
2017-09-14T06:11:01.823Z,5
2017-09-14T06:12:01.017Z,5
2017-09-14T06:13:02.147Z,5
2017-09-14T06:14:01.511Z,5
2017-09-14T06:15:01.837Z,0
2017-09-14T06:16:01.413Z,0
2017-09-14T06:17:01.429Z,5
2017-09-14T06:18:01.460Z,5
2017-09-14T06:19:01.471Z,5
2017-09-14T06:20:01.814Z,0
2017-09-14T06:21:01.505Z,0
2017-09-14T06:22:01.849Z,0
2017-09-14T06:23:01.880Z,0
2017-09-14T06:24:01.576Z,0
2017-09-14T06:25:01.594Z,0
2017-09-14T06:26:01.284Z,0
2017-09-14T06:27:01.628Z,0
2017-09-14T06:28:01.513Z,5
2017-09-14T06:29:01.021Z,5
2017-09-14T06:30:02.158Z,5
2017-09-14T06:31:01.069Z,5
2017-09-14T06:32:01.724Z,5
2017-09-14T06:33:01.749Z,5
2017-09-14T06:34:01.760Z,5
2017-09-14T06:35:02.378Z,5
2017-09-14T06:36:02.123Z,5
2017-09-14T06:37:01.821Z,5
2017-09-14T06:38:01.847Z,5
2017-09-14T06:39:01.546Z,5
2017-09-14T06:40:02.212Z,5
2017-09-14T06:41:01.578Z,10
2017-09-14T06:42:01.693Z,10
2017-09-14T06:43:01.938Z,10
2017-09-14T06:44:01.635Z,5
2017-09-14T06:45:02.631Z,5
2017-09-14T06:46:02.000Z,5
2017-09-14T06:47:02.022Z,5
2017-09-14T06:48:02.032Z,5
2017-09-14T06:49:02.431Z,5
2017-09-14T06:50:02.401Z,5
2017-09-14T06:51:03.026Z,5
2017-09-14T06:52:01.894Z,5
2017-09-14T06:53:02.459Z,10
2017-09-14T06:54:02.159Z,15
2017-09-14T06:55:01.852Z,10
2017-09-14T06:56:02.215Z,10
2017-09-14T06:57:02.534Z,10
2017-09-14T06:58:02.229Z,10
2017-09-14T06:59:01.923Z,10
2017-09-14T07:00:01.950Z,10
2017-09-14T07:01:01.968Z,10
2017-09-14T07:02:02.636Z,10
2017-09-14T07:03:02.326Z,10
2017-09-14T07:04:02.671Z,10
2017-09-14T07:05:02.043Z,10
2017-09-14T07:06:02.714Z,10
2017-09-14T07:07:02.083Z,10
2017-09-14T07:08:02.432Z,10
2017-09-14T07:09:02.451Z,10
2017-09-14T07:10:02.808Z,10
2017-09-14T07:11:02.802Z,10
2017-09-14T07:12:03.210Z,15
2017-09-14T07:13:02.849Z,15
2017-09-14T07:14:03.195Z,15
2017-09-14T07:15:02.891Z,10
2017-09-14T07:16:03.244Z,15
2017-09-14T07:17:02.928Z,15
2017-09-14T07:18:02.745Z,10
2017-09-14T07:19:03.194Z,10
2017-09-14T07:20:03.410Z,10
2017-09-14T07:21:03.000Z,15
2017-09-14T07:22:02.696Z,15
2017-09-14T07:23:03.036Z,15
2017-09-14T07:24:03.078Z,15
2017-09-14T07:25:02.752Z,15
2017-09-14T07:26:03.414Z,20
2017-09-14T07:27:03.457Z,15
2017-09-14T07:28:03.145Z,15
2017-09-14T07:29:03.619Z,15
2017-09-14T07:30:03.506Z,15
2017-09-14T07:31:03.521Z,20
2017-09-14T07:32:03.235Z,20
2017-09-14T07:33:02.914Z,15
2017-09-14T07:34:03.144Z,20
2017-09-14T07:35:02.954Z,20
2017-09-14T07:36:02.970Z,25
2017-09-14T07:37:02.991Z,20
2017-09-14T07:38:03.012Z,10
2017-09-14T07:39:02.708Z,5
2017-09-14T07:40:03.099Z,5
2017-09-14T07:41:03.392Z,5
2017-09-14T07:42:03.736Z,5
2017-09-14T07:43:03.110Z,5
2017-09-14T07:44:03.133Z,10
2017-09-14T07:45:02.825Z,5
2017-09-14T07:46:03.182Z,5
2017-09-14T07:47:02.949Z,5
2017-09-14T07:48:03.849Z,5
2017-09-14T07:49:03.221Z,5
2017-09-14T07:50:03.568Z,5
2017-09-14T07:51:03.636Z,5
2017-09-14T07:52:03.940Z,5
2017-09-14T07:53:03.630Z,10
2017-09-14T07:54:03.697Z,15
2017-09-14T07:55:03.538Z,10
2017-09-14T07:56:03.778Z,10
2017-09-14T07:57:04.043Z,10
2017-09-14T07:58:03.416Z,10
2017-09-14T07:59:03.251Z,10
2017-09-14T08:00:03.247Z,15
2017-09-14T08:01:04.165Z,15
2017-09-14T08:02:03.526Z,15
2017-09-14T08:03:03.834Z,15
2017-09-14T08:04:03.663Z,15
2017-09-14T08:05:03.986Z,15
2017-09-14T08:06:03.347Z,20
2017-09-14T08:07:03.904Z,20
2017-09-14T08:08:03.624Z,20
2017-09-14T08:09:03.711Z,20
2017-09-14T08:10:03.702Z,20
2017-09-14T08:11:03.505Z,20
2017-09-14T08:12:04.142Z,20
2017-09-14T08:13:03.858Z,20
2017-09-14T08:14:03.956Z,20
2017-09-14T08:15:03.838Z,20
2017-09-14T08:16:03.790Z,20
2017-09-14T08:17:04.112Z,20
2017-09-14T08:18:03.812Z,20
2017-09-14T08:19:03.814Z,20
2017-09-14T08:20:04.162Z,20
2017-09-14T08:21:04.181Z,20
2017-09-14T08:22:03.976Z,25
2017-09-14T08:23:03.701Z,25
2017-09-14T08:24:04.242Z,25
2017-09-14T08:25:04.262Z,20
2017-09-14T08:26:03.637Z,20
2017-09-14T08:27:03.981Z,20
2017-09-14T08:28:04.001Z,20
2017-09-14T08:29:04.017Z,20
2017-09-14T08:30:04.036Z,20
2017-09-14T08:31:04.380Z,15
2017-09-14T08:32:04.728Z,20
2017-09-14T08:33:04.100Z,20
2017-09-14T08:34:04.434Z,20
2017-09-14T08:35:03.812Z,20
2017-09-14T08:36:04.158Z,20
2017-09-14T08:37:04.496Z,20
2017-09-14T08:38:04.193Z,20
2017-09-14T08:39:04.863Z,15
2017-09-14T08:40:03.919Z,15
2017-09-14T08:41:04.573Z,15
2017-09-14T08:42:04.274Z,20
2017-09-14T08:43:04.616Z,20
2017-09-14T08:44:04.632Z,15
2017-09-14T08:45:04.662Z,20
2017-09-14T08:46:04.027Z,20
2017-09-14T08:47:04.713Z,20
2017-09-14T08:48:04.400Z,20
2017-09-14T08:49:04.845Z,20
2017-09-14T08:50:04.758Z,20
2017-09-14T08:51:04.451Z,15
2017-09-14T08:52:04.804Z,15
2017-09-14T08:53:05.298Z,20
2017-09-14T08:54:05.065Z,20
2017-09-14T08:55:04.757Z,15
2017-09-14T08:56:05.199Z,10
2017-09-14T08:57:05.119Z,10
2017-09-14T08:58:04.596Z,10
2017-09-14T08:59:05.267Z,10
2017-09-14T09:00:05.207Z,10
2017-09-14T09:01:05.036Z,10
2017-09-14T09:02:04.349Z,10
2017-09-14T09:03:05.532Z,10
2017-09-14T09:04:04.406Z,10
2017-09-14T09:05:04.734Z,10
2017-09-14T09:06:05.524Z,10
2017-09-14T09:07:05.629Z,15
2017-09-14T09:08:05.037Z,15
2017-09-14T09:09:05.334Z,15
2017-09-14T09:10:05.155Z,20
2017-09-14T09:11:04.935Z,20
2017-09-14T09:12:05.034Z,20
2017-09-14T09:13:05.567Z,20
2017-09-14T09:14:05.559Z,20
2017-09-14T09:15:04.672Z,20
2017-09-14T09:16:05.423Z,15
2017-09-14T09:17:04.796Z,15
2017-09-14T09:18:05.093Z,15
2017-09-14T09:19:05.334Z,15
2017-09-14T09:20:04.805Z,10
2017-09-14T09:21:05.381Z,10
2017-09-14T09:22:05.397Z,10
2017-09-14T09:23:05.095Z,10
2017-09-14T09:24:05.769Z,15
2017-09-14T09:25:05.511Z,15
2017-09-14T09:26:05.155Z,15
2017-09-14T09:27:05.178Z,15
2017-09-14T09:28:05.521Z,15
2017-09-14T09:29:05.212Z,15
2017-09-14T09:30:05.265Z,15
2017-09-14T09:31:05.261Z,15
2017-09-14T09:32:04.952Z,15
2017-09-14T09:33:05.616Z,15
2017-09-14T09:34:05.644Z,15
2017-09-14T09:35:05.718Z,10
2017-09-14T09:36:05.718Z,15
2017-09-14T09:37:05.407Z,15
2017-09-14T09:38:05.400Z,15
2017-09-14T09:39:05.432Z,20
2017-09-14T09:40:06.097Z,20
2017-09-14T09:41:05.243Z,20
2017-09-14T09:42:05.866Z,20
2017-09-14T09:43:06.185Z,20
2017-09-14T09:44:06.199Z,20
2017-09-14T09:45:06.180Z,20
2017-09-14T09:46:05.286Z,20
2017-09-14T09:47:04.939Z,20
2017-09-14T09:48:06.116Z,20
2017-09-14T09:49:05.801Z,15
2017-09-14T09:50:05.639Z,15
2017-09-14T09:51:05.654Z,15
2017-09-14T09:52:05.787Z,15
2017-09-14T09:53:06.343Z,15
2017-09-14T09:54:06.122Z,15
2017-09-14T09:55:05.757Z,15
2017-09-14T09:56:06.412Z,15
2017-09-14T09:57:05.970Z,15
2017-09-14T09:58:06.131Z,15
2017-09-14T09:59:06.140Z,10
2017-09-14T10:00:06.211Z,10
2017-09-14T10:01:06.540Z,10
2017-09-14T10:02:06.225Z,10
2017-09-14T10:03:06.580Z,10
2017-09-14T10:04:05.919Z,15
2017-09-14T10:05:06.270Z,15
2017-09-14T10:06:05.966Z,15
2017-09-14T10:07:05.343Z,15
2017-09-14T10:08:06.028Z,15
2017-09-14T10:09:06.406Z,15
2017-09-14T10:10:06.044Z,15
2017-09-14T10:11:06.068Z,20
2017-09-14T10:12:05.766Z,20
2017-09-14T10:13:06.433Z,15
2017-09-14T10:14:06.449Z,15
2017-09-14T10:15:06.155Z,20
2017-09-14T10:16:06.520Z,25
2017-09-14T10:17:06.530Z,25
2017-09-14T10:18:06.541Z,30
2017-09-14T10:19:06.219Z,30
2017-09-14T10:20:06.577Z,40
2017-09-14T10:21:06.910Z,35
2017-09-14T10:22:06.622Z,30
2017-09-14T10:23:06.316Z,30
2017-09-14T10:24:06.323Z,30
2017-09-14T10:25:05.719Z,35
2017-09-14T10:26:06.362Z,35
2017-09-14T10:27:06.067Z,30
2017-09-14T10:28:06.403Z,35
2017-09-14T10:29:06.429Z,35
2017-09-14T10:30:06.123Z,35
2017-09-14T10:31:06.466Z,30
2017-09-14T10:32:07.140Z,30
2017-09-14T10:33:06.503Z,35
2017-09-14T10:34:05.880Z,35
2017-09-14T10:35:07.198Z,30
2017-09-14T10:36:06.892Z,30
2017-09-14T10:37:06.592Z,30
2017-09-14T10:38:06.607Z,30
2017-09-14T10:39:06.627Z,25
2017-09-14T10:40:06.979Z,25
2017-09-14T10:41:07.349Z,20
2017-09-14T10:42:06.993Z,20
2017-09-14T10:43:07.357Z,20
2017-09-14T10:44:07.168Z,20
2017-09-14T10:45:06.756Z,25
2017-09-14T10:46:06.453Z,25
2017-09-14T10:47:06.799Z,25
2017-09-14T10:48:07.458Z,20
2017-09-14T10:49:07.251Z,20
2017-09-14T10:50:06.950Z,15
2017-09-14T10:51:07.395Z,10
2017-09-14T10:52:07.394Z,15
2017-09-14T10:53:07.560Z,20
2017-09-14T10:54:07.721Z,20
2017-09-14T10:55:07.718Z,20
2017-09-14T10:56:06.657Z,10
2017-09-14T10:57:06.992Z,10
2017-09-14T10:58:06.695Z,10
2017-09-14T10:59:07.908Z,15
2017-09-14T11:00:07.908Z,15
2017-09-14T11:01:07.394Z,15
2017-09-14T11:02:07.553Z,15
2017-09-14T11:03:07.465Z,15
2017-09-14T11:04:07.602Z,15
2017-09-14T11:05:06.833Z,10
2017-09-14T11:06:07.182Z,10
2017-09-14T11:07:07.556Z,15
2017-09-14T11:08:07.579Z,10
2017-09-14T11:09:07.232Z,15
2017-09-14T11:10:07.588Z,15
2017-09-14T11:11:07.281Z,15
2017-09-14T11:12:07.436Z,15
2017-09-14T11:13:07.110Z,15
2017-09-14T11:14:07.111Z,15
2017-09-14T11:15:07.276Z,15
2017-09-14T11:16:07.800Z,15
2017-09-14T11:17:07.169Z,15
2017-09-14T11:18:07.762Z,15
2017-09-14T11:19:07.001Z,15
2017-09-14T11:20:07.477Z,15
2017-09-14T11:21:07.477Z,15
2017-09-14T11:22:07.553Z,15
2017-09-14T11:23:07.757Z,15
2017-09-14T11:24:07.882Z,15
2017-09-14T11:25:07.761Z,20
2017-09-14T11:26:07.947Z,20
2017-09-14T11:27:07.366Z,20
2017-09-14T11:28:07.621Z,20
2017-09-14T11:29:07.642Z,20
2017-09-14T11:30:08.310Z,15
2017-09-14T11:31:07.035Z,20
2017-09-14T11:32:08.351Z,20
2017-09-14T11:33:07.075Z,20
2017-09-14T11:34:07.777Z,10
2017-09-14T11:35:08.078Z,15
2017-09-14T11:36:07.867Z,15
2017-09-14T11:37:07.798Z,10
2017-09-14T11:38:07.839Z,15
2017-09-14T11:39:07.192Z,15
2017-09-14T11:40:08.209Z,20
2017-09-14T11:41:08.208Z,25
2017-09-14T11:42:08.230Z,45
2017-09-14T11:43:07.926Z,50
2017-09-14T11:44:07.638Z,45
2017-09-14T11:45:08.283Z,50
2017-09-14T11:46:08.305Z,40
2017-09-14T11:47:07.719Z,55
2017-09-14T11:48:08.052Z,40
2017-09-14T11:49:08.043Z,30
2017-09-14T11:50:08.079Z,40
2017-09-14T11:51:08.438Z,40
2017-09-14T11:52:08.124Z,45
2017-09-14T11:53:08.766Z,45
2017-09-14T11:54:08.481Z,30
2017-09-14T11:55:08.523Z,35
2017-09-14T11:56:07.858Z,40
2017-09-14T11:57:08.561Z,25
2017-09-14T11:58:08.660Z,20
2017-09-14T11:59:08.298Z,20
2017-09-14T12:00:08.308Z,30
2017-09-14T12:01:08.389Z,50
2017-09-14T12:02:08.627Z,45
2017-09-14T12:03:07.695Z,45
2017-09-14T12:04:08.753Z,35
2017-09-14T12:05:08.421Z,35
2017-09-14T12:06:08.727Z,30
2017-09-14T12:07:08.726Z,25
2017-09-14T12:08:08.776Z,20
2017-09-14T12:09:08.121Z,20
2017-09-14T12:10:08.792Z,20
2017-09-14T12:11:08.161Z,25
2017-09-14T12:12:07.863Z,25
2017-09-14T12:13:08.207Z,25
2017-09-14T12:14:08.459Z,30
2017-09-14T12:15:07.918Z,25
2017-09-14T12:16:08.583Z,20
2017-09-14T12:17:09.110Z,15
2017-09-14T12:18:08.957Z,10
2017-09-14T12:19:08.331Z,10
2017-09-14T12:20:08.669Z,10
2017-09-14T12:21:08.682Z,10
2017-09-14T12:22:09.044Z,15
2017-09-14T12:23:09.061Z,15
2017-09-14T12:24:08.748Z,20
2017-09-14T12:25:08.120Z,15
2017-09-14T12:26:09.455Z,15
2017-09-14T12:27:08.166Z,15
2017-09-14T12:28:09.268Z,15
2017-09-14T12:29:09.165Z,15
2017-09-14T12:30:08.873Z,10
2017-09-14T12:31:09.318Z,10
2017-09-14T12:32:09.342Z,10
2017-09-14T12:33:09.347Z,15
2017-09-14T12:34:09.267Z,25
2017-09-14T12:35:08.970Z,30
2017-09-14T12:36:08.984Z,30
2017-09-14T12:37:09.334Z,25
2017-09-14T12:38:09.355Z,15
2017-09-14T12:39:09.371Z,15
2017-09-14T12:40:09.071Z,15
2017-09-14T12:41:09.407Z,20
2017-09-14T12:42:09.112Z,15
2017-09-14T12:43:09.130Z,20
2017-09-14T12:44:09.806Z,20
2017-09-14T12:45:09.198Z,30
2017-09-14T12:46:09.313Z,40
2017-09-14T12:47:09.203Z,25
2017-09-14T12:48:09.316Z,15
2017-09-14T12:49:09.989Z,10
2017-09-14T12:50:09.928Z,10
2017-09-14T12:51:10.228Z,15
2017-09-14T12:52:09.829Z,15
2017-09-14T12:53:10.298Z,20
2017-09-14T12:54:09.753Z,30
2017-09-14T12:55:09.051Z,40
2017-09-14T12:56:09.061Z,25
2017-09-14T12:57:09.598Z,25
2017-09-14T12:58:09.864Z,15
2017-09-14T12:59:09.765Z,10
2017-09-14T13:00:10.110Z,10
2017-09-14T13:01:09.725Z,5
2017-09-14T13:02:10.154Z,10
2017-09-14T13:03:09.846Z,10
2017-09-14T13:04:09.874Z,20
2017-09-14T13:05:09.889Z,15
2017-09-14T13:06:09.611Z,10
2017-09-14T13:07:09.609Z,10
2017-09-14T13:08:09.636Z,5
2017-09-14T13:09:09.968Z,5
2017-09-14T13:10:09.362Z,5
2017-09-14T13:11:09.693Z,5
2017-09-14T13:12:09.718Z,10
2017-09-14T13:13:10.068Z,10
2017-09-14T13:14:09.780Z,15
2017-09-14T13:15:10.101Z,15
2017-09-14T13:16:10.241Z,30
2017-09-14T13:17:10.323Z,45
2017-09-14T13:18:10.469Z,45
2017-09-14T13:19:09.528Z,45
2017-09-14T13:20:10.372Z,30
2017-09-14T13:21:09.980Z,10
2017-09-14T13:22:09.926Z,10
2017-09-14T13:23:10.250Z,10
2017-09-14T13:24:10.267Z,30
2017-09-14T13:25:10.392Z,40
2017-09-14T13:26:10.005Z,25
2017-09-14T13:27:10.463Z,15
2017-09-14T13:28:10.459Z,5
2017-09-14T13:29:10.155Z,20
2017-09-14T13:30:10.496Z,25
2017-09-14T13:31:10.488Z,35
2017-09-14T13:32:10.441Z,35
2017-09-14T13:33:10.150Z,35
2017-09-14T13:34:10.175Z,45
2017-09-14T13:35:10.492Z,20
2017-09-14T13:36:10.526Z,20
2017-09-14T13:37:10.211Z,15
2017-09-14T13:38:10.443Z,20
2017-09-14T13:39:10.250Z,10
2017-09-14T13:40:10.609Z,15
2017-09-14T13:41:10.115Z,25
2017-09-14T13:42:10.939Z,50
2017-09-14T13:43:10.133Z,50
2017-09-14T13:44:10.457Z,40
2017-09-14T13:45:10.576Z,25
2017-09-14T13:46:10.891Z,20
2017-09-14T13:47:10.904Z,15
2017-09-14T13:48:10.771Z,15
2017-09-14T13:49:10.448Z,15
2017-09-14T13:50:09.982Z,15
2017-09-14T13:51:10.599Z,20
2017-09-14T13:52:10.333Z,20
2017-09-14T13:53:10.858Z,10
2017-09-14T13:54:10.559Z,20
2017-09-14T13:55:10.980Z,25
2017-09-14T13:56:11.296Z,30
2017-09-14T13:57:10.343Z,20
2017-09-14T13:58:11.102Z,25
2017-09-14T13:59:10.651Z,20
2017-09-14T14:00:10.989Z,20
2017-09-14T14:01:11.385Z,20
2017-09-14T14:02:11.035Z,20
2017-09-14T14:03:11.274Z,15
2017-09-14T14:04:11.241Z,25
2017-09-14T14:05:11.098Z,40
2017-09-14T14:06:10.796Z,25
2017-09-14T14:07:10.828Z,35
2017-09-14T14:08:10.506Z,20
2017-09-14T14:09:11.358Z,20
2017-09-14T14:10:11.522Z,20
2017-09-14T14:11:10.244Z,20
2017-09-14T14:12:10.585Z,25
2017-09-14T14:13:11.258Z,25
2017-09-14T14:14:11.384Z,15
2017-09-14T14:15:11.619Z,25
2017-09-14T14:16:10.352Z,25
2017-09-14T14:17:11.386Z,20
2017-09-14T14:18:11.385Z,30
2017-09-14T14:19:11.474Z,25
2017-09-14T14:20:11.165Z,20
2017-09-14T14:21:10.768Z,20
2017-09-14T14:22:11.437Z,35
2017-09-14T14:23:10.828Z,40
2017-09-14T14:24:11.571Z,40
2017-09-14T14:25:11.570Z,35
2017-09-14T14:26:10.873Z,20
2017-09-14T14:27:11.858Z,30
2017-09-14T14:28:11.237Z,40
2017-09-14T14:29:11.393Z,40
2017-09-14T14:30:11.364Z,35
2017-09-14T14:31:11.374Z,35